createdAt,value
2023-02-20T00:03:26.978Z,16.70
2023-02-20T00:08:28.836Z,16.70
2023-02-20T00:13:30.865Z,16.70
2023-02-20T00:18:32.550Z,16.70
2023-02-20T00:23:34.722Z,16.70
2023-02-20T00:28:37.831Z,16.60
2023-02-20T00:33:39.656Z,16.60
2023-02-20T00:38:42.300Z,16.60
2023-02-20T00:43:44.125Z,16.60
2023-02-20T00:48:45.979Z,16.60
2023-02-20T00:53:47.774Z,16.60
2023-02-20T00:58:49.601Z,16.60
2023-02-20T01:03:51.356Z,16.50
2023-02-20T01:08:53.095Z,16.50
2023-02-20T01:13:54.873Z,16.60
2023-02-20T01:18:56.756Z,16.50
2023-02-20T01:23:58.504Z,16.50
2023-02-20T01:29:00.440Z,16.50
2023-02-20T01:34:02.437Z,16.50
2023-02-20T01:39:04.132Z,16.40
2023-02-20T01:44:05.870Z,16.40
2023-02-20T01:49:11.451Z,16.40
2023-02-20T01:54:15.368Z,16.40
2023-02-20T01:59:17.605Z,16.40
2023-02-20T02:04:20.130Z,16.40
2023-02-20T02:09:27.041Z,16.40
2023-02-20T02:14:28.766Z,16.40
2023-02-20T02:19:33.396Z,16.40
2023-02-20T02:24:51.751Z,16.30
2023-02-20T02:29:56.280Z,16.30
2023-02-20T02:35:16.873Z,16.30
2023-02-20T02:40:36.966Z,16.30
2023-02-20T02:45:43.911Z,16.30
2023-02-20T02:50:46.792Z,16.30
2023-02-20T02:55:48.540Z,16.40
2023-02-20T03:00:57.559Z,16.30
2023-02-20T03:06:05.276Z,16.30
2023-02-20T03:11:08.719Z,16.30
2023-02-20T03:16:12.082Z,16.30
2023-02-20T03:21:17.020Z,16.30
2023-02-20T03:26:22.504Z,16.30
2023-02-20T03:31:28.062Z,16.30
2023-02-20T03:36:53.678Z,16.20
2023-02-20T03:42:14.818Z,16.30
2023-02-20T03:47:19.132Z,16.20
2023-02-20T03:52:21.144Z,16.20
2023-02-20T03:57:30.552Z,16.20
2023-02-20T04:02:34.876Z,16.20
2023-02-20T04:07:39.816Z,16.20
2023-02-20T04:12:43.751Z,16.20
2023-02-20T04:17:47.933Z,16.20
2023-02-20T04:22:50.636Z,16.20
2023-02-20T04:27:52.602Z,16.20
2023-02-20T04:32:54.287Z,16.10
2023-02-20T04:37:56.302Z,16.10
2023-02-20T04:42:57.904Z,16.10
2023-02-20T06:05:26.484Z,16.40
2023-02-20T06:10:28.147Z,16.60
2023-02-20T06:15:30.031Z,16.70
2023-02-20T06:20:31.802Z,16.70
2023-02-20T06:25:33.658Z,16.70
2023-02-20T06:30:35.482Z,16.70
2023-02-20T06:35:37.305Z,16.80
2023-02-20T06:40:39.369Z,16.70
2023-02-20T06:45:41.092Z,16.70
2023-02-20T06:50:42.801Z,16.70
2023-02-20T06:55:44.550Z,16.80
2023-02-20T07:00:46.647Z,16.80
2023-02-20T07:05:48.428Z,16.80
2023-02-20T07:10:50.114Z,16.70
2023-02-20T07:15:51.869Z,16.70
2023-02-20T07:20:55.208Z,16.70
2023-02-20T07:25:57.112Z,16.70
2023-02-20T07:30:59.123Z,16.60
2023-02-20T07:36:00.838Z,16.60
2023-02-20T07:41:02.600Z,16.50
2023-02-20T07:46:04.492Z,16.50
2023-02-20T07:51:06.214Z,16.50
2023-02-20T07:56:07.991Z,16.50
2023-02-20T08:01:09.669Z,16.40
2023-02-20T08:06:11.847Z,16.40
2023-02-20T08:11:13.830Z,16.40
2023-02-20T08:16:16.106Z,16.40
2023-02-20T08:21:17.983Z,16.30
2023-02-20T08:26:19.683Z,16.30
2023-02-20T08:31:31.592Z,16.30
2023-02-20T08:36:34.701Z,16.30
2023-02-20T08:41:41.819Z,16.20
2023-02-20T08:46:50.728Z,16.20
2023-02-20T08:51:54.105Z,16.20
2023-02-20T08:56:55.850Z,16.20
2023-02-20T09:01:57.545Z,16.20
2023-02-20T09:06:59.336Z,16.20
2023-02-20T09:12:01.120Z,16.20
2023-02-20T09:17:03.241Z,16.20
2023-02-20T09:22:05.236Z,16.10
2023-02-20T09:27:07.222Z,16.10
2023-02-20T09:32:09.068Z,16.10
2023-02-20T09:37:11.220Z,16.20
2023-02-20T09:42:12.930Z,16.10
2023-02-20T09:47:33.153Z,16.10
2023-02-20T09:52:37.373Z,16.10
2023-02-20T09:57:39.323Z,16.10
2023-02-20T10:02:59.848Z,16.10
2023-02-20T10:08:01.647Z,16.10
2023-02-20T10:13:08.159Z,16.10
2023-02-20T10:18:42.201Z,16.10
2023-02-20T10:24:03.744Z,16.10
2023-02-20T10:29:19.076Z,16.10
2023-02-20T10:34:24.032Z,16.10
2023-02-20T10:39:26.209Z,16.10
2023-02-20T10:44:31.004Z,16.10
2023-02-20T10:49:50.184Z,16.20
2023-02-20T10:54:56.825Z,16.10
2023-02-20T11:00:15.642Z,16.20
2023-02-20T11:05:19.241Z,16.20
2023-02-20T11:10:20.870Z,16.20
2023-02-20T11:15:24.547Z,16.10
2023-02-20T11:20:32.443Z,16.20
2023-02-20T11:25:35.109Z,16.20
2023-02-20T11:30:40.539Z,16.20
2023-02-20T11:35:43.213Z,16.20
2023-02-20T11:40:46.396Z,16.20
2023-02-20T11:45:48.170Z,16.20
2023-02-20T11:50:51.047Z,16.20
2023-02-20T11:56:09.635Z,16.20
2023-02-20T12:01:29.792Z,16.20
2023-02-20T12:06:34.467Z,16.10
2023-02-20T12:11:36.311Z,16.20
2023-02-20T12:16:43.826Z,16.10
2023-02-20T12:21:45.634Z,16.10
2023-02-20T12:26:54.194Z,16.10
2023-02-20T12:32:11.813Z,16.00
2023-02-20T12:37:13.802Z,16.10
2023-02-20T12:42:26.949Z,16.00
2023-02-20T12:47:28.804Z,16.10
2023-02-20T12:52:31.605Z,16.00
2023-02-20T12:57:43.116Z,16.00
2023-02-20T13:02:49.790Z,15.90
2023-02-20T13:07:52.688Z,15.90
2023-02-20T13:12:54.511Z,16.00
2023-02-20T13:18:04.873Z,15.90
2023-02-20T13:23:26.262Z,15.90
2023-02-20T13:28:30.852Z,15.90
2023-02-20T13:33:32.971Z,15.90
2023-02-20T13:38:34.701Z,15.90
2023-02-20T13:43:37.406Z,15.80
2023-02-20T13:48:42.229Z,15.80
2023-02-20T13:53:44.699Z,15.80
2023-02-20T13:58:46.823Z,15.80
2023-02-20T14:03:59.949Z,15.80
2023-02-20T14:09:15.586Z,15.80
2023-02-20T14:14:30.723Z,15.80
2023-02-20T14:19:33.072Z,15.80
2023-02-20T14:24:34.873Z,15.80
2023-02-20T14:29:37.711Z,15.80
2023-02-20T14:34:48.199Z,15.80
2023-02-20T14:39:49.842Z,15.80
2023-02-20T14:44:58.708Z,15.80
2023-02-20T14:50:21.570Z,15.80
2023-02-20T14:55:25.739Z,15.80
2023-02-20T15:00:34.940Z,15.80
2023-02-20T15:05:41.207Z,15.80
2023-02-20T15:10:44.186Z,15.80
2023-02-20T15:15:47.764Z,15.80
2023-02-20T15:20:49.728Z,15.80
2023-02-20T15:25:51.663Z,15.80
2023-02-20T15:31:05.435Z,15.80
2023-02-20T15:36:11.537Z,15.80
2023-02-20T15:41:13.517Z,15.80
2023-02-20T15:46:17.044Z,15.80
2023-02-20T15:51:21.010Z,15.70
2023-02-20T15:56:22.935Z,15.70
2023-02-20T16:01:24.677Z,15.70
2023-02-20T16:06:26.560Z,15.70
2023-02-20T16:11:34.130Z,15.70
2023-02-20T16:16:40.670Z,15.70
2023-02-20T16:21:53.070Z,15.70
2023-02-20T16:26:59.787Z,15.70
2023-02-20T16:32:01.661Z,15.70
2023-02-20T16:37:03.599Z,15.70
2023-02-20T16:42:17.711Z,15.70
2023-02-20T16:47:20.477Z,15.70
2023-02-20T16:52:22.410Z,15.70
2023-02-20T16:57:24.341Z,15.60
2023-02-20T17:02:27.366Z,15.70
2023-02-20T17:07:31.213Z,15.60
2023-02-20T17:12:34.148Z,15.60
2023-02-20T17:17:35.906Z,15.60
2023-02-20T17:22:38.505Z,15.60
2023-02-20T17:27:40.266Z,15.60
2023-02-20T17:32:41.978Z,15.60
2023-02-20T17:37:44.074Z,15.60
2023-02-20T17:42:45.799Z,15.60
2023-02-20T17:47:47.610Z,15.60
2023-02-20T17:52:54.030Z,15.70
2023-02-20T17:57:55.911Z,15.90
2023-02-20T18:02:57.779Z,16.20
2023-02-20T18:07:59.652Z,16.60
2023-02-20T18:13:04.369Z,16.90
2023-02-20T18:18:06.451Z,17.10
2023-02-20T18:23:09.150Z,17.30
2023-02-20T18:28:10.874Z,17.50
2023-02-20T18:33:12.854Z,17.70
2023-02-20T18:38:14.752Z,17.70
2023-02-20T18:43:16.847Z,17.80
2023-02-20T18:48:18.552Z,18.00
2023-02-20T18:53:20.338Z,18.00
2023-02-20T18:58:22.212Z,18.00
2023-02-20T19:03:23.986Z,18.00
2023-02-20T19:08:25.725Z,17.90
2023-02-20T19:13:27.455Z,17.90
2023-02-20T19:18:30.151Z,17.90
2023-02-20T19:23:31.874Z,17.80
2023-02-20T19:28:35.526Z,17.70
2023-02-20T19:33:37.671Z,17.80
2023-02-20T19:38:39.613Z,17.90
2023-02-20T19:43:41.615Z,18.00
2023-02-20T19:48:45.099Z,18.00
2023-02-20T19:53:47.132Z,17.90
2023-02-20T19:58:48.873Z,17.90
2023-02-20T20:03:50.558Z,17.90
2023-02-20T20:09:10.422Z,17.90
2023-02-20T20:14:13.099Z,17.80
2023-02-20T20:19:15.095Z,17.80
2023-02-20T20:24:17.520Z,17.80
2023-02-20T20:29:19.430Z,17.90
2023-02-20T20:34:21.218Z,18.00
2023-02-20T20:39:23.068Z,17.90
2023-02-20T20:44:24.826Z,17.90
2023-02-20T20:49:26.646Z,17.80
2023-02-20T20:54:28.588Z,17.70
2023-02-20T20:59:30.377Z,17.60
2023-02-20T21:04:32.184Z,17.50
2023-02-20T21:09:33.957Z,17.40
2023-02-20T21:14:39.962Z,17.40
2023-02-20T21:19:42.345Z,17.30
2023-02-20T21:24:44.026Z,17.20
2023-02-20T21:29:45.959Z,17.20
2023-02-20T21:34:47.726Z,17.10
2023-02-20T21:39:49.458Z,17.00
2023-02-20T21:44:51.222Z,17.00
2023-02-20T21:49:52.872Z,16.90
2023-02-20T21:54:54.646Z,16.90
2023-02-20T21:59:56.376Z,16.90
2023-02-20T22:04:58.057Z,16.80
2023-02-20T22:10:18.303Z,16.80
2023-02-20T22:15:38.793Z,16.80
2023-02-20T22:20:59.330Z,16.80
2023-02-20T22:26:19.562Z,16.80
2023-02-20T22:31:39.799Z,16.70
2023-02-20T22:36:59.943Z,16.70
2023-02-20T22:42:23.284Z,16.60
2023-02-20T22:47:49.551Z,16.60
2023-02-20T22:53:09.998Z,16.50
2023-02-20T22:58:30.592Z,16.50
2023-02-20T23:03:50.862Z,16.50
2023-02-20T23:09:11.068Z,16.40
2023-02-20T23:14:31.273Z,16.40
2023-02-20T23:19:51.595Z,16.40
2023-02-20T23:25:11.694Z,16.40
2023-02-20T23:30:32.520Z,16.30
2023-02-20T23:35:52.908Z,16.30
2023-02-20T23:41:13.804Z,16.30
2023-02-20T23:46:34.047Z,16.30
2023-02-20T23:51:54.751Z,16.30
2023-02-20T23:57:14.904Z,16.20
